Time;durP1;ratioP1;P1;durP2;ratioP2;P2;SDS_P1;SDS_P2;PMS_P1;PMS_P2;Temp;Humidity;BMP_temperature;BMP_pressure;BME280_temperature;BME280_humidity;BME280_pressure;Samples;Min_cycle;Max_cycle;Signal;HPM_P1;HPM_P2
2021/04/27 00:01:33;;;;;;;25.27;15.20;;;13.30;99.90;;;;;;4900693;29;20032;-76
2021/04/27 00:03:59;;;;;;;28.70;15.80;;;13.30;99.90;;;;;;4882000;29;20089;-76
2021/04/27 00:06:24;;;;;;;22.70;15.18;;;13.30;99.90;;;;;;4862103;29;20030;-76
2021/04/27 00:08:50;;;;;;;28.40;14.25;;;13.30;99.90;;;;;;4879489;29;20055;-76
2021/04/27 00:11:16;;;;;;;27.48;15.40;;;13.40;99.90;;;;;;4881868;29;20400;-76
2021/04/27 00:13:42;;;;;;;23.77;16.38;;;13.30;99.90;;;;;;4861815;29;20557;-76
2021/04/27 00:16:09;;;;;;;34.92;17.08;;;13.30;99.90;;;;;;4880262;29;20393;-76
2021/04/27 00:18:34;;;;;;;28.23;16.40;;;13.20;99.90;;;;;;4896002;29;20029;-76
2021/04/27 00:21:00;;;;;;;22.90;15.20;;;13.20;99.90;;;;;;4881726;29;20032;-76
2021/04/27 00:23:26;;;;;;;27.88;16.58;;;13.30;99.90;;;;;;4881580;29;20025;-76
2021/04/27 00:25:52;;;;;;;27.42;15.90;;;13.30;99.90;;;;;;4881566;29;20508;-76
2021/04/27 00:28:17;;;;;;;24.83;16.13;;;13.20;99.90;;;;;;4861889;29;20033;-76
2021/04/27 00:30:44;;;;;;;29.90;16.15;;;13.10;99.90;;;;;;4878161;29;20032;-76
2021/04/27 00:33:09;;;;;;;23.73;15.93;;;13.10;99.90;;;;;;4880944;29;20521;-76
2021/04/27 00:35:36;;;;;;;21.90;15.30;;;13.20;99.90;;;;;;4880741;29;20058;-76
2021/04/27 00:38:02;;;;;;;25.85;15.95;;;13.20;99.90;;;;;;4880793;29;20112;-76
2021/04/27 00:40:31;;;;;;;24.98;16.23;;;13.20;99.90;;;;;;4880611;29;20426;-76
2021/04/27 00:42:57;;;;;;;20.67;14.02;;;13.20;99.90;;;;;;4862769;29;20033;-76
2021/04/27 00:45:26;;;;;;;25.52;14.50;;;13.20;99.90;;;;;;4876198;29;20506;-76
2021/04/27 00:47:53;;;;;;;24.73;14.98;;;13.30;99.90;;;;;;4878349;29;20025;-76
2021/04/27 00:50:39;;;;;;;22.92;15.18;;;13.30;99.90;;;;;;4880333;29;20048;-76
2021/04/27 00:53:05;;;;;;;24.13;14.82;;;13.30;99.90;;;;;;4899695;29;20552;-76
2021/04/27 00:55:32;;;;;;;22.65;13.80;;;13.30;99.90;;;;;;4899717;29;20121;-76
2021/04/27 00:58:01;;;;;;;22.90;13.45;;;13.30;99.90;;;;;;4899649;29;20108;-76
2021/04/27 01:00:31;;;;;;;24.80;14.68;;;13.30;99.90;;;;;;4895328;29;20029;-76
2021/04/27 01:02:57;;;;;;;26.20;14.80;;;13.20;99.90;;;;;;4898168;29;20029;-76
2021/04/27 01:05:26;;;;;;;24.40;15.65;;;13.10;99.90;;;;;;4879650;29;20044;-76
2021/04/27 01:07:58;;;;;;;22.48;14.50;;;13.10;99.90;;;;;;4897498;29;20021;-76
2021/04/27 01:10:49;;;;;;;21.90;14.48;;;13.00;99.90;;;;;;4899664;29;20489;-76
2021/04/27 01:13:22;;;;;;;23.75;15.40;;;13.00;99.90;;;;;;4884584;29;20128;-76
2021/04/27 01:15:49;;;;;;;24.20;14.55;;;13.00;99.90;;;;;;4899731;29;20119;-76
2021/04/27 01:18:17;;;;;;;23.75;14.55;;;13.00;99.90;;;;;;4895285;29;20021;-76
2021/04/27 01:20:46;;;;;;;23.95;14.88;;;13.00;99.90;;;;;;4879067;29;20568;-76
2021/04/27 01:23:11;;;;;;;24.48;15.35;;;13.00;99.90;;;;;;4880359;29;20029;-76
2021/04/27 01:26:00;;;;;;;18.73;13.50;;;13.00;99.90;;;;;;4880502;29;20432;-76
2021/04/27 01:28:27;;;;;;;21.92;14.95;;;13.10;99.90;;;;;;4880584;29;20021;-76
2021/04/27 01:30:54;;;;;;;24.42;15.75;;;13.10;99.90;;;;;;4880146;29;20045;-76
2021/04/27 01:33:23;;;;;;;29.38;16.08;;;13.10;99.90;;;;;;4880324;29;20037;-76
2021/04/27 01:35:49;;;;;;;24.92;15.23;;;13.20;99.90;;;;;;4863711;29;20037;-76
2021/04/27 01:38:19;;;;;;;21.30;15.18;;;13.20;99.90;;;;;;4855381;29;20029;-76
2021/04/27 01:40:46;;;;;;;25.38;15.98;;;13.10;99.90;;;;;;4841778;29;20030;-76
2021/04/27 01:43:12;;;;;;;21.98;14.98;;;13.10;99.90;;;;;;4861798;29;20036;-76
2021/04/27 01:45:38;;;;;;;22.42;15.60;;;13.10;99.90;;;;;;4886133;29;20589;-76
2021/04/27 01:48:05;;;;;;;21.88;14.20;;;13.10;99.90;;;;;;4882056;29;20033;-76
2021/04/27 01:50:31;;;;;;;22.73;15.18;;;13.10;99.90;;;;;;4872669;29;20030;-76
2021/04/27 01:52:57;;;;;;;23.13;15.27;;;13.10;99.90;;;;;;4885938;29;20024;-76
2021/04/27 01:55:24;;;;;;;23.38;15.32;;;13.10;99.90;;;;;;4894492;29;20033;-76
2021/04/27 01:57:49;;;;;;;23.58;15.40;;;13.10;99.90;;;;;;4877722;29;20033;-76
2021/04/27 02:00:19;;;;;;;26.10;16.02;;;13.10;99.90;;;;;;4880120;29;20025;-76
2021/04/27 02:02:46;;;;;;;24.25;15.68;;;13.10;99.90;;;;;;4860106;29;20082;-76
2021/04/27 02:05:13;;;;;;;24.67;15.93;;;13.20;99.90;;;;;;4860141;29;20067;-76
2021/04/27 02:07:39;;;;;;;26.13;15.32;;;13.10;99.90;;;;;;4876678;29;20105;-76
2021/04/27 02:10:08;;;;;;;26.27;15.15;;;13.20;99.90;;;;;;4898425;29;20115;-76
2021/04/27 02:12:36;;;;;;;23.42;14.90;;;13.20;99.90;;;;;;4898510;29;20029;-76
2021/04/27 02:15:04;;;;;;;24.90;14.63;;;13.20;99.90;;;;;;4898402;29;20112;-76
2021/04/27 02:18:11;;;;;;;24.55;14.93;;;13.20;99.90;;;;;;4878426;29;20033;-76
2021/04/27 02:20:37;;;;;;;20.88;14.02;;;13.20;99.90;;;;;;4877902;29;20367;-76
2021/04/27 02:23:03;;;;;;;24.42;15.30;;;13.10;99.90;;;;;;4881041;29;20032;-75
2021/04/27 02:25:30;;;;;;;23.27;16.05;;;13.10;99.90;;;;;;4898333;29;20021;-76
2021/04/27 02:27:57;;;;;;;22.58;15.77;;;13.10;99.90;;;;;;4895469;29;20050;-76
2021/04/27 02:30:24;;;;;;;21.65;15.13;;;13.10;99.90;;;;;;4897883;29;20112;-76
2021/04/27 02:32:51;;;;;;;26.75;15.32;;;13.10;99.90;;;;;;4897863;29;20061;-76
2021/04/27 02:35:19;;;;;;;28.02;15.32;;;13.10;99.90;;;;;;4898077;29;20029;-76
2021/04/27 02:37:47;;;;;;;23.88;15.77;;;13.10;99.90;;;;;;4897963;29;20115;-76
2021/04/27 02:40:15;;;;;;;22.20;15.23;;;13.10;99.90;;;;;;4897997;29;20016;-76
2021/04/27 02:42:49;;;;;;;23.83;14.90;;;13.10;99.90;;;;;;4897933;29;20360;-76
2021/04/27 02:45:15;;;;;;;24.63;16.00;;;13.10;99.90;;;;;;4889016;29;20029;-76
2021/04/27 02:47:40;;;;;;;25.38;14.55;;;13.10;99.90;;;;;;4879268;29;20541;-76
2021/04/27 02:50:07;;;;;;;22.08;14.93;;;13.10;99.90;;;;;;4879494;29;20021;-76
2021/04/27 02:52:35;;;;;;;21.27;14.13;;;13.00;99.90;;;;;;4878693;29;20191;-76
2021/04/27 02:55:01;;;;;;;23.35;14.48;;;13.00;99.90;;;;;;4879083;29;20080;-76
2021/04/27 02:57:27;;;;;;;26.60;15.15;;;13.00;99.90;;;;;;4862454;29;20030;-76
2021/04/27 02:59:52;;;;;;;23.98;15.55;;;13.00;99.90;;;;;;4879105;29;20025;-76
2021/04/27 03:02:18;;;;;;;21.52;15.45;;;13.00;99.90;;;;;;4879025;29;20036;-76
2021/04/27 03:04:44;;;;;;;23.08;14.75;;;13.00;99.90;;;;;;4862351;29;20029;-76
2021/04/27 03:07:09;;;;;;;23.65;14.70;;;12.90;99.90;;;;;;4879066;29;20041;-76
2021/04/27 03:09:35;;;;;;;19.00;12.95;;;12.90;99.90;;;;;;4879100;29;20025;-76
2021/04/27 03:12:03;;;;;;;19.10;12.80;;;12.90;99.90;;;;;;4878913;29;20108;-76
2021/04/27 03:14:29;;;;;;;19.80;13.25;;;12.90;99.90;;;;;;4862348;29;20025;-76
2021/04/27 03:16:54;;;;;;;23.17;13.68;;;12.90;99.90;;;;;;4878974;29;20116;-76
2021/04/27 03:19:20;;;;;;;19.00;12.52;;;12.90;99.90;;;;;;4878780;29;20085;-77
2021/04/27 03:21:46;;;;;;;18.40;11.63;;;12.90;99.90;;;;;;4879067;29;20481;-76
2021/04/27 03:24:11;;;;;;;18.20;12.15;;;12.80;99.90;;;;;;4878931;29;20025;-76
2021/04/27 03:26:37;;;;;;;18.95;12.02;;;12.80;99.90;;;;;;4878952;29;20029;-76
2021/04/27 03:29:04;;;;;;;19.52;11.02;;;12.80;99.90;;;;;;4879112;29;20036;-76
2021/04/27 03:31:32;;;;;;;22.63;11.35;;;12.80;99.90;;;;;;4878845;29;20052;-76
2021/04/27 03:33:57;;;;;;;16.20;10.82;;;12.70;99.90;;;;;;4862159;29;20033;-76
2021/04/27 03:36:23;;;;;;;17.98;11.05;;;12.80;99.90;;;;;;4879022;29;20084;-76
2021/04/27 03:38:49;;;;;;;16.38;10.95;;;12.70;99.90;;;;;;4872249;29;20033;-76
2021/04/27 03:41:14;;;;;;;16.20;10.32;;;12.70;99.90;;;;;;4878768;29;20025;-76
2021/04/27 03:43:40;;;;;;;16.35;10.63;;;12.70;99.90;;;;;;4878763;29;20116;-76
2021/04/27 03:46:06;;;;;;;19.33;11.00;;;12.80;99.90;;;;;;4879072;29;20030;-76
2021/04/27 03:48:32;;;;;;;20.35;11.00;;;12.70;99.90;;;;;;4878696;29;20030;-76
2021/04/27 03:50:58;;;;;;;13.73;9.48;;;12.70;99.90;;;;;;4872631;29;20045;-76
2021/04/27 03:53:24;;;;;;;17.13;10.45;;;12.80;99.90;;;;;;4847976;29;20037;-75
2021/04/27 03:55:49;;;;;;;16.13;10.23;;;12.70;99.90;;;;;;4896820;29;20037;-76
2021/04/27 03:58:15;;;;;;;16.73;11.35;;;12.70;99.90;;;;;;4890946;29;20017;-75
2021/04/27 04:00:41;;;;;;;19.55;11.18;;;12.70;99.90;;;;;;4878494;29;20548;-75
2021/04/27 04:03:07;;;;;;;12.60;9.98;;;12.70;99.90;;;;;;4878565;29;20036;-75
2021/04/27 04:05:32;;;;;;;17.30;9.68;;;12.60;99.90;;;;;;4861221;29;20025;-75
2021/04/27 04:07:58;;;;;;;14.13;10.18;;;12.60;99.90;;;;;;4880456;29;20025;-75
2021/04/27 04:10:24;;;;;;;13.95;9.85;;;12.60;99.90;;;;;;4861898;29;20036;-74
2021/04/27 04:12:50;;;;;;;15.00;10.00;;;12.60;99.90;;;;;;4879567;29;20041;-75
2021/04/27 04:15:18;;;;;;;11.80;9.77;;;12.60;99.90;;;;;;4881665;29;20045;-75
2021/04/27 04:17:44;;;;;;;16.30;10.55;;;12.50;99.90;;;;;;4881568;29;20043;-75
2021/04/27 04:20:19;;;;;;;11.85;8.98;;;12.60;99.90;;;;;;4881492;29;20037;-75
2021/04/27 04:22:45;;;;;;;15.15;10.30;;;12.50;99.90;;;;;;4861994;29;20520;-74
2021/04/27 04:25:13;;;;;;;21.38;11.30;;;12.40;99.90;;;;;;4881578;29;20045;-75
2021/04/27 04:27:39;;;;;;;18.50;11.15;;;12.40;99.90;;;;;;4881551;29;20024;-75
2021/04/27 04:30:17;;;;;;;14.30;10.88;;;12.40;99.90;;;;;;4881295;29;20077;-75
2021/04/27 04:32:44;;;;;;;18.10;12.10;;;12.30;99.90;;;;;;4881323;29;20052;-75
2021/04/27 04:35:12;;;;;;;14.10;10.68;;;12.40;99.90;;;;;;4861507;29;20033;-75
2021/04/27 04:37:38;;;;;;;17.98;12.20;;;12.40;99.90;;;;;;4861528;29;20086;-75
2021/04/27 04:40:06;;;;;;;16.88;10.93;;;12.40;99.90;;;;;;4881074;29;20029;-74
2021/04/27 04:42:32;;;;;;;18.08;11.25;;;12.40;99.90;;;;;;4881017;29;20080;-75
2021/04/27 04:44:57;;;;;;;19.75;11.90;;;12.40;99.90;;;;;;4881407;29;20437;-75
2021/04/27 04:47:23;;;;;;;21.50;11.93;;;12.40;99.90;;;;;;4890458;29;20032;-74
2021/04/27 04:49:49;;;;;;;18.00;12.13;;;12.40;99.90;;;;;;4889889;29;20482;-75
2021/04/27 04:52:15;;;;;;;17.45;12.45;;;12.40;99.90;;;;;;4881185;29;20457;-75
2021/04/27 04:54:41;;;;;;;19.48;12.02;;;12.40;99.90;;;;;;4881058;29;20061;-75
2021/04/27 04:57:07;;;;;;;21.13;12.85;;;12.30;99.90;;;;;;4881030;29;20029;-75
2021/04/27 04:59:33;;;;;;;17.17;12.65;;;12.30;99.90;;;;;;4880851;29;20089;-75
2021/04/27 05:01:58;;;;;;;15.93;11.50;;;12.30;99.90;;;;;;4880893;29;20354;-75
2021/04/27 05:04:24;;;;;;;21.65;12.77;;;12.40;99.90;;;;;;4880738;29;20084;-75
2021/04/27 05:06:51;;;;;;;19.27;13.73;;;12.40;99.90;;;;;;4880704;29;20033;-74
2021/04/27 05:09:17;;;;;;;23.83;12.73;;;12.30;99.90;;;;;;4880854;29;20062;-74
2021/04/27 05:11:43;;;;;;;17.88;11.65;;;12.40;99.90;;;;;;4880569;29;20059;-75
2021/04/27 05:14:09;;;;;;;18.35;11.88;;;12.40;99.90;;;;;;4880646;29;20037;-75
2021/04/27 05:16:35;;;;;;;18.33;12.65;;;12.40;99.90;;;;;;4879865;29;20107;-75
2021/04/27 05:19:02;;;;;;;18.73;13.10;;;12.30;99.90;;;;;;4879326;29;20033;-75
2021/04/27 05:21:46;;;;;;;21.27;13.07;;;12.30;99.90;;;;;;4880650;29;20029;-74
2021/04/27 05:24:12;;;;;;;19.33;12.70;;;12.40;99.90;;;;;;4860722;29;20486;-75
2021/04/27 05:26:38;;;;;;;24.13;13.68;;;12.40;99.90;;;;;;4876612;29;20036;-75
2021/04/27 05:29:03;;;;;;;18.92;13.65;;;12.40;99.90;;;;;;4880382;29;20086;-75
2021/04/27 05:31:29;;;;;;;19.85;14.20;;;12.50;99.90;;;;;;4880311;29;20049;-75
2021/04/27 05:33:55;;;;;;;22.23;13.55;;;12.50;99.90;;;;;;4873234;29;20439;-75
2021/04/27 05:36:20;;;;;;;23.05;13.63;;;12.50;99.90;;;;;;4861847;29;20033;-75
2021/04/27 05:38:46;;;;;;;20.23;13.88;;;12.50;99.90;;;;;;4861674;29;20508;-75
2021/04/27 05:41:13;;;;;;;21.70;14.10;;;12.50;99.90;;;;;;4861844;29;20057;-75
2021/04/27 05:43:38;;;;;;;23.05;12.88;;;12.60;99.90;;;;;;4861501;29;20040;-75
2021/04/27 05:46:04;;;;;;;24.85;14.18;;;12.50;99.90;;;;;;4862535;29;20092;-75
2021/04/27 05:48:30;;;;;;;22.73;13.68;;;12.60;99.90;;;;;;4878063;29;20124;-75
2021/04/27 05:50:55;;;;;;;18.25;13.07;;;12.60;99.90;;;;;;4880576;29;20028;-75
2021/04/27 05:53:21;;;;;;;19.80;13.68;;;12.60;99.90;;;;;;4880646;29;20036;-75
2021/04/27 05:55:47;;;;;;;20.77;14.27;;;12.60;99.90;;;;;;4896155;29;20491;-75
2021/04/27 05:58:12;;;;;;;23.73;14.35;;;12.60;99.90;;;;;;4898390;29;20034;-75
2021/04/27 06:00:38;;;;;;;21.10;12.90;;;12.60;99.90;;;;;;4887594;29;20021;-74
2021/04/27 06:03:04;;;;;;;19.25;13.25;;;12.60;99.90;;;;;;4861363;29;20470;-74
2021/04/27 06:05:30;;;;;;;24.83;13.50;;;12.60;99.90;;;;;;4885387;29;20073;-74
2021/04/27 06:07:56;;;;;;;21.85;13.80;;;12.50;99.90;;;;;;4886506;29;20021;-74
2021/04/27 06:10:22;;;;;;;27.50;14.65;;;12.50;99.90;;;;;;4879206;29;20035;-74
2021/04/27 06:12:48;;;;;;;25.02;13.93;;;12.50;99.90;;;;;;4860081;29;20443;-74
2021/04/27 06:15:17;;;;;;;28.73;14.52;;;12.50;99.90;;;;;;4859706;29;20037;-74
2021/04/27 06:17:44;;;;;;;21.80;14.45;;;12.50;99.90;;;;;;4876110;29;20029;-75
2021/04/27 06:20:10;;;;;;;22.55;14.00;;;12.60;99.90;;;;;;4849354;29;20405;-75
2021/04/27 06:22:38;;;;;;;25.42;15.35;;;12.50;99.90;;;;;;4876475;29;20025;-74
2021/04/27 06:25:06;;;;;;;22.20;14.60;;;12.60;99.90;;;;;;4863278;29;20413;-74
2021/04/27 06:27:32;;;;;;;22.02;14.68;;;12.50;99.90;;;;;;4859263;29;20632;-74
2021/04/27 06:29:59;;;;;;;24.00;14.55;;;12.50;99.90;;;;;;4877790;29;20052;-74
2021/04/27 06:32:25;;;;;;;23.15;14.60;;;12.60;99.90;;;;;;4879115;29;20132;-74
2021/04/27 06:34:51;;;;;;;21.08;14.45;;;12.60;99.90;;;;;;4879251;29;20540;-74
2021/04/27 06:37:17;;;;;;;25.40;15.55;;;12.60;99.90;;;;;;4879000;29;20517;-74
2021/04/27 06:39:43;;;;;;;23.23;14.63;;;12.70;99.90;;;;;;4862389;29;20071;-74
2021/04/27 06:42:08;;;;;;;26.05;14.93;;;12.70;99.90;;;;;;4879290;29;20061;-75
2021/04/27 06:44:35;;;;;;;25.90;14.95;;;12.70;99.90;;;;;;4879130;29;20029;-74
2021/04/27 06:47:01;;;;;;;24.17;14.60;;;12.70;99.90;;;;;;4879288;29;20036;-74
2021/04/27 06:49:27;;;;;;;25.65;14.77;;;12.70;99.90;;;;;;4878396;29;20029;-74
2021/04/27 06:51:53;;;;;;;21.05;13.05;;;12.80;99.90;;;;;;4879144;29;20021;-74
2021/04/27 06:54:19;;;;;;;25.13;14.73;;;12.80;99.90;;;;;;4878795;29;20473;-74
2021/04/27 06:56:44;;;;;;;21.48;13.15;;;12.80;99.90;;;;;;4873657;29;20037;-74
2021/04/27 06:59:12;;;;;;;22.38;14.60;;;12.80;99.90;;;;;;4876752;29;20044;-75
2021/04/27 07:01:38;;;;;;;20.42;14.57;;;12.90;99.90;;;;;;4877044;29;20527;-75
2021/04/27 07:04:04;;;;;;;22.80;15.45;;;12.90;99.90;;;;;;4878317;29;20025;-75
2021/04/27 07:06:30;;;;;;;22.55;14.05;;;12.80;99.90;;;;;;4883826;29;20029;-75
2021/04/27 07:08:56;;;;;;;25.95;15.05;;;12.90;99.90;;;;;;4896075;29;20025;-75
2021/04/27 07:11:21;;;;;;;22.50;14.57;;;12.90;99.90;;;;;;4895878;29;20027;-76
2021/04/27 07:13:47;;;;;;;23.20;14.15;;;12.90;99.90;;;;;;4897515;29;20027;-75
2021/04/27 07:16:15;;;;;;;24.55;14.65;;;12.90;99.90;;;;;;4897518;29;20056;-75
2021/04/27 07:18:41;;;;;;;23.27;13.95;;;13.00;99.90;;;;;;4876493;29;20028;-75
2021/04/27 07:21:07;;;;;;;26.27;16.02;;;13.00;99.90;;;;;;4878554;29;20029;-75
2021/04/27 07:23:33;;;;;;;28.98;16.17;;;13.00;99.90;;;;;;4882957;29;20572;-76
2021/04/27 07:25:59;;;;;;;23.23;14.02;;;13.00;99.90;;;;;;4888417;29;20084;-76
2021/04/27 07:28:24;;;;;;;22.30;14.80;;;13.00;99.90;;;;;;4888523;29;20021;-76
2021/04/27 07:30:51;;;;;;;22.10;13.75;;;13.10;99.90;;;;;;4897428;29;20060;-75
2021/04/27 07:33:17;;;;;;;23.15;13.45;;;13.00;99.90;;;;;;4896172;29;20084;-76
2021/04/27 07:35:43;;;;;;;25.15;15.18;;;13.10;99.90;;;;;;4896194;29;20028;-75
2021/04/27 07:38:09;;;;;;;22.00;14.93;;;13.10;99.90;;;;;;4897437;29;20025;-75
2021/04/27 07:40:36;;;;;;;22.65;14.63;;;13.10;99.90;;;;;;4899025;29;20028;-75
2021/04/27 07:43:02;;;;;;;27.58;15.45;;;13.20;99.90;;;;;;4901155;29;20025;-76
2021/04/27 07:45:34;;;;;;;24.73;15.32;;;13.20;99.90;;;;;;4901350;29;20036;-75
2021/04/27 07:48:05;;;;;;;25.67;14.43;;;13.20;99.90;;;;;;4901082;29;20024;-75
2021/04/27 07:50:31;;;;;;;24.10;13.95;;;13.30;99.90;;;;;;4884384;29;20272;-75
2021/04/27 07:52:57;;;;;;;20.52;13.90;;;13.30;99.90;;;;;;4882193;29;20025;-75
2021/04/27 07:55:23;;;;;;;23.25;15.55;;;13.20;99.90;;;;;;4889381;29;20024;-75
2021/04/27 07:57:49;;;;;;;22.60;14.40;;;13.20;99.90;;;;;;4896062;29;20536;-75
2021/04/27 08:00:16;;;;;;;27.30;15.98;;;13.20;99.90;;;;;;4900931;29;20033;-75
2021/04/27 08:02:42;;;;;;;22.67;15.00;;;13.30;99.90;;;;;;4900699;29;20124;-75
2021/04/27 08:05:09;;;;;;;27.58;15.57;;;13.30;99.90;;;;;;4900568;29;20020;-75
2021/04/27 08:07:35;;;;;;;27.85;16.15;;;13.30;99.90;;;;;;4883944;29;20032;-76
2021/04/27 08:10:02;;;;;;;26.98;16.55;;;13.20;99.90;;;;;;4899872;29;20036;-75
2021/04/27 08:12:28;;;;;;;24.77;15.60;;;13.30;99.90;;;;;;4899789;29;20397;-75
2021/04/27 08:14:54;;;;;;;27.95;17.50;;;13.40;99.90;;;;;;4899815;29;20032;-75
2021/04/27 08:17:19;;;;;;;29.73;16.55;;;13.40;99.90;;;;;;4899809;29;20028;-75
2021/04/27 08:19:47;;;;;;;25.25;16.02;;;13.50;99.90;;;;;;4890078;29;20033;-75
2021/04/27 08:22:13;;;;;;;26.27;16.67;;;13.50;99.90;;;;;;4863954;29;20033;-75
2021/04/27 08:24:43;;;;;;;28.90;17.65;;;13.60;99.90;;;;;;4880682;29;20032;-75
2021/04/27 08:27:11;;;;;;;27.38;16.60;;;13.70;99.90;;;;;;4881270;29;20437;-75
2021/04/27 08:29:37;;;;;;;32.50;17.88;;;13.60;99.90;;;;;;4881496;29;20085;-75
2021/04/27 08:32:03;;;;;;;31.23;17.63;;;13.70;99.90;;;;;;4864615;29;20057;-75
2021/04/27 08:34:28;;;;;;;28.88;17.40;;;13.70;99.90;;;;;;4877986;29;20123;-75
2021/04/27 08:36:54;;;;;;;29.70;17.85;;;13.80;99.90;;;;;;4881424;29;20036;-75
2021/04/27 08:39:20;;;;;;;27.73;17.70;;;13.80;99.90;;;;;;4881344;29;20033;-75
2021/04/27 08:41:46;;;;;;;28.00;17.70;;;13.70;99.90;;;;;;4881623;29;20545;-75
2021/04/27 08:44:12;;;;;;;28.27;17.33;;;13.80;99.90;;;;;;4881325;29;20033;-75
2021/04/27 08:46:38;;;;;;;27.70;15.60;;;14.00;99.90;;;;;;4881380;29;20037;-75
2021/04/27 08:49:04;;;;;;;29.75;17.92;;;13.90;99.90;;;;;;4866601;29;20028;-75
2021/04/27 08:51:30;;;;;;;24.55;15.35;;;13.90;99.90;;;;;;4898838;29;20032;-76
2021/04/27 08:53:55;;;;;;;24.92;15.25;;;13.90;99.90;;;;;;4883152;29;20381;-76
2021/04/27 08:56:21;;;;;;;29.65;15.95;;;13.80;99.90;;;;;;4900077;29;20033;-76
2021/04/27 08:58:47;;;;;;;24.67;14.77;;;13.90;99.90;;;;;;4899899;29;20397;-76
2021/04/27 09:01:14;;;;;;;25.88;16.08;;;14.00;99.90;;;;;;4883032;29;20060;-76
2021/04/27 09:03:50;;;;;;;24.02;15.23;;;14.10;99.90;;;;;;4883002;29;20052;-76
2021/04/27 09:06:22;;;;;;;20.90;14.77;;;14.20;99.90;;;;;;4882838;29;20032;-75
2021/04/27 09:08:48;;;;;;;25.02;14.68;;;14.20;99.90;;;;;;4882935;29;20084;-76
2021/04/27 09:11:25;;;;;;;24.70;13.95;;;14.20;99.90;;;;;;4899585;29;20396;-76
2021/04/27 09:14:05;;;;;;;26.42;14.40;;;14.20;99.90;;;;;;4900062;29;20037;-76
2021/04/27 09:16:31;;;;;;;24.08;15.13;;;14.40;99.90;;;;;;4900496;29;20054;-75
2021/04/27 09:18:57;;;;;;;20.25;13.98;;;14.40;99.90;;;;;;4896365;29;20041;-75
2021/04/27 09:21:36;;;;;;;24.08;15.73;;;14.40;99.90;;;;;;4882256;29;20025;-75
2021/04/27 09:24:16;;;;;;;24.50;14.85;;;14.40;99.90;;;;;;4880663;29;20094;-75
2021/04/27 09:26:51;;;;;;;20.55;15.07;;;14.40;99.90;;;;;;4880796;29;20461;-75
2021/04/27 09:29:35;;;;;;;21.27;14.20;;;14.40;99.90;;;;;;4880473;29;20398;-75
2021/04/27 09:32:05;;;;;;;26.50;14.48;;;14.40;99.90;;;;;;4880153;29;20057;-75
2021/04/27 09:34:34;;;;;;;27.27;13.90;;;14.50;99.90;;;;;;4863700;29;20481;-75
2021/04/27 09:37:02;;;;;;;21.38;13.68;;;14.50;99.90;;;;;;4863588;29;20036;-75
2021/04/27 09:39:34;;;;;;;24.42;14.75;;;14.50;99.70;;;;;;4863460;29;20692;-74
2021/04/27 09:42:07;;;;;;;19.92;14.07;;;14.50;99.90;;;;;;4880271;29;20077;-75
2021/04/27 09:44:39;;;;;;;26.67;15.07;;;14.40;99.90;;;;;;4863384;29;20040;-75
2021/04/27 09:47:15;;;;;;;;;;;14.40;99.60;;;;;;4864034;29;20039;-74
2021/04/27 09:49:50;;;;;;;23.95;14.93;;;14.40;99.80;;;;;;4873909;29;19912;-74
2021/04/27 09:52:16;;;;;;;20.60;14.48;;;14.40;99.60;;;;;;4876018;29;20025;-75
2021/04/27 09:55:04;;;;;;;25.15;14.77;;;14.20;99.50;;;;;;4879928;29;20088;-75
2021/04/27 09:57:33;;;;;;;22.88;14.48;;;14.30;99.90;;;;;;4875302;29;20098;-75
2021/04/27 10:00:25;;;;;;;23.77;14.63;;;14.20;99.40;;;;;;4878530;29;20454;-75
2021/04/27 10:02:52;;;;;;;21.63;15.52;;;14.30;99.40;;;;;;4870777;29;20045;-75
2021/04/27 10:05:18;;;;;;;21.75;14.90;;;14.30;99.90;;;;;;4873018;29;20081;-74
2021/04/27 10:07:45;;;;;;;26.50;15.32;;;14.40;99.90;;;;;;4867918;29;20025;-75
2021/04/27 10:10:12;;;;;;;22.92;13.73;;;14.40;99.20;;;;;;4889598;29;20028;-74
2021/04/27 10:12:39;;;;;;;23.33;14.57;;;14.40;99.50;;;;;;4882524;29;20527;-75
2021/04/27 10:15:07;;;;;;;22.58;15.32;;;14.40;98.00;;;;;;4887584;29;20492;-76
2021/04/27 10:17:34;;;;;;;23.25;15.65;;;14.30;98.80;;;;;;4861589;29;20021;-76
2021/04/27 10:20:03;;;;;;;19.65;14.10;;;14.30;99.10;;;;;;4854742;29;20022;-76
2021/04/27 10:22:29;;;;;;;24.42;15.57;;;14.40;99.20;;;;;;4893480;29;20026;-76
2021/04/27 10:24:56;;;;;;;22.48;15.00;;;14.40;99.60;;;;;;4888434;29;20028;-75
2021/04/27 10:27:27;;;;;;;25.02;15.45;;;14.50;99.90;;;;;;4888027;29;20024;-75
2021/04/27 10:30:17;;;;;;;22.42;15.27;;;14.60;99.70;;;;;;4880774;29;20021;-76
2021/04/27 10:32:46;;;;;;;27.08;14.95;;;14.70;99.90;;;;;;4879313;29;20069;-76
2021/04/27 10:35:13;;;;;;;20.33;14.80;;;14.80;99.80;;;;;;4871714;29;20025;-75
2021/04/27 10:38:11;;;;;;;22.40;15.23;;;14.80;99.50;;;;;;4879366;29;20021;-76
2021/04/27 10:41:03;;;;;;;24.80;15.25;;;14.80;99.60;;;;;;4863265;29;20028;-76
2021/04/27 10:43:31;;;;;;;;;;;14.80;99.20;;;;;;4882203;29;20136;-76
2021/04/27 10:46:00;;;;;;;24.75;14.80;;;14.80;98.90;;;;;;4879387;29;20317;-75
2021/04/27 10:48:28;;;;;;;22.20;16.00;;;14.90;98.90;;;;;;4892366;29;20111;-76
2021/04/27 10:50:55;;;;;;;23.90;15.30;;;14.90;98.90;;;;;;4857906;29;20025;-76
2021/04/27 10:53:36;;;;;;;26.60;16.23;;;15.00;99.40;;;;;;4879037;29;20029;-76
2021/04/27 10:56:04;;;;;;;28.60;15.52;;;15.00;98.00;;;;;;4888150;29;20047;-76
2021/04/27 10:58:43;;;;;;;21.27;14.70;;;15.00;98.30;;;;;;4880983;29;20021;-76
2021/04/27 11:01:29;;;;;;;20.25;14.93;;;15.10;98.50;;;;;;4889510;29;20056;-76
2021/04/27 11:03:57;;;;;;;22.73;15.27;;;15.20;99.20;;;;;;4886294;29;20028;-76
2021/04/27 11:06:27;;;;;;;24.65;15.40;;;15.10;98.50;;;;;;4877987;29;20104;-75
2021/04/27 11:09:14;;;;;;;24.95;15.60;;;15.10;98.20;;;;;;4884747;29;20479;-75
2021/04/27 11:11:40;;;;;;;24.00;15.02;;;15.10;98.10;;;;;;4887576;29;20036;-76
2021/04/27 11:14:14;;;;;;;24.90;15.55;;;15.20;98.80;;;;;;4882483;29;20025;-76
2021/04/27 11:16:41;;;;;;;21.98;14.80;;;15.20;98.30;;;;;;4865911;29;20037;-76
2021/04/27 11:19:11;;;;;;;22.08;15.35;;;15.20;98.20;;;;;;4882567;29;20450;-76
2021/04/27 11:21:37;;;;;;;23.52;15.15;;;15.20;98.20;;;;;;4882880;29;20104;-75
2021/04/27 11:24:08;;;;;;;21.98;15.10;;;15.30;98.00;;;;;;4865917;29;20041;-76
2021/04/27 11:26:40;;;;;;;23.83;16.13;;;15.30;99.00;;;;;;4866105;29;20104;-76
2021/04/27 11:29:08;;;;;;;23.45;16.55;;;15.40;98.90;;;;;;4882718;29;20492;-76
2021/04/27 11:32:10;;;;;;;27.00;15.70;;;15.50;99.10;;;;;;4865761;29;20532;-76
2021/04/27 11:35:16;;;;;;;24.10;15.02;;;15.60;98.80;;;;;;4878533;29;20074;-76
2021/04/27 11:38:03;;;;;;;22.92;14.45;;;15.70;99.10;;;;;;4867566;29;20044;-76
2021/04/27 11:40:36;;;;;;;24.55;14.15;;;15.60;98.20;;;;;;4862680;29;20030;-76
2021/04/27 11:43:06;;;;;;;24.02;15.63;;;15.70;98.90;;;;;;4881603;29;20025;-75
2021/04/27 11:45:37;;;;;;;22.58;16.27;;;15.70;98.10;;;;;;4865577;29;20181;-76
2021/04/27 11:48:04;;;;;;;25.85;15.07;;;15.60;97.60;;;;;;4884689;29;20535;-76
2021/04/27 11:50:32;;;;;;;23.10;15.95;;;15.60;97.90;;;;;;4886009;29;20060;-76
2021/04/27 11:53:04;;;;;;;25.85;16.08;;;15.60;98.80;;;;;;4882507;29;20025;-76
2021/04/27 11:55:37;;;;;;;23.88;14.75;;;15.60;99.40;;;;;;4882184;29;20112;-76
2021/04/27 11:58:05;;;;;;;27.25;15.75;;;15.60;98.90;;;;;;4865214;29;20033;-75
2021/04/27 12:00:47;;;;;;;21.58;14.60;;;15.70;99.00;;;;;;4882215;29;20029;-76
2021/04/27 12:03:21;;;;;;;25.38;14.55;;;15.70;98.40;;;;;;4865334;29;20438;-76
2021/04/27 12:05:48;;;;;;;23.98;15.82;;;15.70;98.60;;;;;;4882315;29;20029;-76
2021/04/27 12:08:29;;;;;;;23.77;15.02;;;15.70;98.40;;;;;;4865073;29;20111;-76
2021/04/27 12:11:06;;;;;;;23.63;14.73;;;15.70;98.50;;;;;;4882278;29;20160;-76
2021/04/27 12:13:32;;;;;;;19.40;14.38;;;15.70;98.10;;;;;;4881948;29;20025;-75
2021/04/27 12:16:06;;;;;;;23.65;14.27;;;15.60;99.20;;;;;;4865274;29;20120;-76
2021/04/27 12:18:44;;;;;;;21.60;13.98;;;15.70;98.90;;;;;;4865163;29;20032;-76
2021/04/27 12:21:30;;;;;;;19.38;13.38;;;15.70;99.20;;;;;;4856028;29;20166;-76
2021/04/27 12:24:12;;;;;;;20.40;13.20;;;15.70;99.90;;;;;;4862697;29;20041;-76
2021/04/27 12:26:39;;;;;;;;;;;15.80;99.90;;;;;;4863260;29;20396;-75
2021/04/27 12:29:05;;;;;;;19.60;14.15;;;15.80;99.90;;;;;;4863294;29;19908;-75
2021/04/27 12:31:33;;;;;;;21.60;14.20;;;15.70;98.80;;;;;;4863030;29;20042;-76
2021/04/27 12:34:05;;;;;;;25.77;13.75;;;15.60;99.30;;;;;;4860728;29;20400;-76
2021/04/27 12:36:47;;;;;;;21.52;13.88;;;15.70;99.40;;;;;;4863059;29;20105;-76